BYX weather

Baniyala Airport
Baniyala, Northern Territory, Australia

Public forecast

Using degrees Celsius for public forecast. Weather courtesy of forecast.io.

METAR (pilot weather report)

Closest report is Groote Eylandt Airport, 48.6 nm (90.0 km) SSE. Retrieved 2019/05/25 07:00 UTC (19 minutes ago):

YGTE 250700Z AUTO 12006KT 9999 // SCT032 28/21 Q1012

TAF (pilot weather forecast)

Closest forecast is Gove Airport, 65.6 nm (121.5 km) NNE. Retrieved 2019/05/25 08:00 UTC (0 seconds ago):

TAF YPGV 250706Z 2508/2520 12012KT 9999 SCT025 FM251000 13006KT 9999 SCT020